Time;durP1;ratioP1;P1;durP2;ratioP2;P2;SDS_P1;SDS_P2;PMS_P1;PMS_P2;Temp;Humidity;BMP_temperature;BMP_pressure;BME280_temperature;BME280_humidity;BME280_pressure;Samples;Min_cycle;Max_cycle;Signal;HPM_P1;HPM_P2
2022/12/01 00:00:18;;;;;;;0.30;0.30;;;;;;;5.43;100.00;102653.03;4969726;28;20054;-79
2022/12/01 00:02:43;;;;;;;0.20;0.20;;;;;;;5.42;100.00;102655.75;4941888;28;20019;-79
2022/12/01 00:05:09;;;;;;;0.10;0.10;;;;;;;5.30;100.00;102636.53;4973129;28;20499;-79
2022/12/01 00:07:34;;;;;;;0.20;0.20;;;;;;;5.41;100.00;102649.53;4972398;28;20507;-79
2022/12/01 00:12:43;;;;;;;0.10;0.10;;;;;;;5.37;100.00;102638.13;4959893;28;20073;-78
2022/12/01 00:15:10;;;;;;;0.20;0.20;;;;;;;5.40;100.00;102631.81;4949861;28;20117;-78
2022/12/01 00:17:36;;;;;;;0.20;0.20;;;;;;;5.49;100.00;102652.00;4949223;28;20037;-79
2022/12/01 00:20:01;;;;;;;0.10;0.10;;;;;;;5.49;100.00;102644.00;4962892;28;20389;-79
2022/12/01 00:22:26;;;;;;;0.20;0.20;;;;;;;5.49;100.00;102641.34;4948726;28;20118;-79
2022/12/01 00:24:51;;;;;;;0.20;0.20;;;;;;;5.33;100.00;102617.78;4971191;28;20039;-79
2022/12/01 00:27:17;;;;;;;0.20;0.20;;;;;;;5.45;100.00;102619.25;4976352;28;20111;-79
2022/12/01 00:29:43;;;;;;;0.15;0.15;;;;;;;5.37;100.00;102632.78;4968084;28;20092;-79
2022/12/01 00:32:08;;;;;;;0.10;0.10;;;;;;;5.34;100.00;102622.22;4949232;28;20354;-78
2022/12/01 00:34:33;;;;;;;0.20;0.20;;;;;;;5.40;100.00;102624.72;4947522;28;20417;-79
2022/12/01 00:36:59;;;;;;;0.10;0.10;;;;;;;5.43;100.00;102615.75;4954296;28;20102;-79
2022/12/01 00:39:24;;;;;;;0.20;0.20;;;;;;;5.31;100.00;102614.28;4952658;28;20038;-79
2022/12/01 00:41:50;;;;;;;0.20;0.20;;;;;;;5.48;100.00;102640.47;4951234;28;20070;-79
2022/12/01 00:44:15;;;;;;;0.20;0.20;;;;;;;5.39;100.00;102630.06;4932468;28;20070;-79
2022/12/01 00:46:40;;;;;;;0.17;0.17;;;;;;;5.36;100.00;102632.81;4937982;28;20438;-79
2022/12/01 00:49:06;;;;;;;0.10;0.10;;;;;;;5.31;100.00;102622.28;4960184;28;20568;-79
2022/12/01 00:51:31;;;;;;;0.20;0.20;;;;;;;5.37;100.00;102632.78;4951376;28;20030;-79
2022/12/01 00:53:57;;;;;;;0.17;0.17;;;;;;;5.38;100.00;102654.94;4931023;28;20037;-79
2022/12/01 00:56:22;;;;;;;0.10;0.10;;;;;;;5.37;100.00;102629.22;4951236;28;20528;-77
2022/12/01 00:58:47;;;;;;;0.20;0.20;;;;;;;5.37;100.00;102635.44;4961414;28;20085;-79
2022/12/01 01:01:13;;;;;;;0.20;0.20;;;;;;;5.30;100.00;102625.88;4939416;28;20088;-79
2022/12/01 01:03:38;;;;;;;0.20;0.20;;;;;;;5.52;100.00;102649.25;4941189;28;20027;-79
2022/12/01 01:06:10;;;;;;;0.20;0.20;;;;;;;5.36;100.00;102633.69;4966456;28;20030;-78
2022/12/01 01:08:36;;;;;;;0.20;0.20;;;;;;;5.37;100.00;102654.09;4956586;28;20643;-79
2022/12/01 01:11:01;;;;;;;0.20;0.20;;;;;;;5.19;100.00;102628.81;4934654;28;20417;-79
2022/12/01 01:13:27;;;;;;;0.20;0.20;;;;;;;5.12;100.00;102626.38;4947045;28;20031;-79
2022/12/01 01:16:15;;;;;;;0.20;0.20;;;;;;;5.17;100.00;102621.75;4956612;28;20153;-79
2022/12/01 01:18:40;;;;;;;0.20;0.20;;;;;;;5.13;100.00;102628.13;4930004;28;20030;-78
2022/12/01 01:21:09;;;;;;;0.20;0.20;;;;;;;5.15;100.00;102645.78;4960405;28;20409;-79
2022/12/01 01:23:34;;;;;;;0.20;0.20;;;;;;;5.40;100.00;102670.00;4943510;28;20030;-79
2022/12/01 01:26:02;;;;;;;0.10;0.10;;;;;;;5.39;100.00;102667.34;4963862;28;20031;-79
2022/12/01 01:28:29;;;;;;;0.20;0.20;;;;;;;5.19;100.00;102643.91;4948298;28;20030;-79
2022/12/01 01:30:54;;;;;;;0.10;0.10;;;;;;;5.17;100.00;102625.31;4962826;28;20062;-78
2022/12/01 01:33:19;;;;;;;0.17;0.17;;;;;;;5.21;100.00;102642.06;4953245;28;20464;-79
2022/12/01 01:35:45;;;;;;;0.20;0.20;;;;;;;5.18;100.00;102640.38;4954418;28;20378;-79
2022/12/01 01:38:10;;;;;;;0.20;0.20;;;;;;;5.31;100.00;102656.91;4946249;28;20042;-79
2022/12/01 01:40:42;;;;;;;0.20;0.20;;;;;;;5.35;100.00;102666.56;4959910;28;20031;-79
2022/12/01 01:43:16;;;;;;;0.20;0.20;;;;;;;5.40;100.00;102679.75;4954402;28;20489;-78
2022/12/01 01:45:41;;;;;;;0.20;0.20;;;;;;;5.23;100.00;102643.81;4952664;28;20449;-79
2022/12/01 01:48:08;;;;;;;0.20;0.20;;;;;;;5.14;100.00;102643.19;4929084;28;20045;-78
2022/12/01 01:50:33;;;;;;;0.20;0.20;;;;;;;5.19;100.00;102638.56;4946870;28;20027;-78
2022/12/01 01:53:07;;;;;;;0.20;0.20;;;;;;;5.43;100.00;102684.16;4958834;28;20093;-78
2022/12/01 01:55:33;;;;;;;;;;;;;;;5.22;100.00;102671.34;4949165;28;20138;-78
2022/12/01 01:57:59;;;;;;;0.20;0.20;;;;;;;5.21;100.00;102655.41;4946212;28;20420;-78
2022/12/01 02:00:24;;;;;;;0.20;0.20;;;;;;;5.21;100.00;102642.06;4936792;28;20504;-79
2022/12/01 02:02:50;;;;;;;0.20;0.20;;;;;;;5.28;100.00;102654.31;4949590;28;20018;-80
2022/12/01 02:05:31;;;;;;;0.20;0.20;;;;;;;5.30;100.00;102655.16;4947520;28;20108;-79
2022/12/01 02:07:58;;;;;;;0.10;0.10;;;;;;;5.33;100.00;102667.50;4960734;28;20109;-78
2022/12/01 02:10:47;;;;;;;0.20;0.20;;;;;;;5.22;100.00;102657.16;4950791;28;20050;-78
2022/12/01 02:13:26;;;;;;;0.20;0.20;;;;;;;5.25;100.00;102654.41;4963465;28;20066;-78
2022/12/01 02:16:07;;;;;;;0.20;0.20;;;;;;;5.32;100.00;102673.75;4947837;28;20133;-79
2022/12/01 02:18:54;;;;;;;0.20;0.20;;;;;;;5.29;100.00;102666.72;4949021;28;20034;-79
2022/12/01 02:21:46;;;;;;;0.20;0.20;;;;;;;5.16;100.00;102650.19;4966491;28;20235;-79
2022/12/01 02:24:37;;;;;;;0.20;0.20;;;;;;;5.27;100.00;102673.03;4969841;28;20084;-78
2022/12/01 02:27:29;;;;;;;0.20;0.20;;;;;;;5.36;100.00;102672.75;4946459;28;20054;-79
2022/12/01 02:30:06;;;;;;;0.10;0.10;;;;;;;5.32;100.00;102673.75;4951970;28;20117;-78
2022/12/01 02:32:39;;;;;;;0.20;0.20;;;;;;;5.45;100.00;102677.84;4934504;28;20054;-79
2022/12/01 02:35:32;;;;;;;0.20;0.20;;;;;;;5.12;100.00;102631.69;4937512;28;20105;-78
2022/12/01 02:38:00;;;;;;;0.20;0.20;;;;;;;5.26;100.00;102669.47;4948044;28;20039;-79
2022/12/01 02:40:39;;;;;;;0.20;0.20;;;;;;;5.06;100.00;102636.25;4967668;28;20109;-78
2022/12/01 02:43:11;;;;;;;0.20;0.20;;;;;;;5.30;100.00;102662.28;4949824;28;20027;-78
2022/12/01 02:45:53;;;;;;;0.20;0.20;;;;;;;5.23;100.00;102659.78;4949484;28;20054;-78
2022/12/01 02:48:37;;;;;;;0.20;0.20;;;;;;;5.25;100.00;102657.06;4950321;28;20375;-79
2022/12/01 02:51:19;;;;;;;0.20;0.20;;;;;;;5.32;100.00;102673.75;4945629;28;20031;-78
2022/12/01 02:53:45;;;;;;;0.20;0.20;;;;;;;5.23;100.00;102672.22;4949052;28;20042;-78
2022/12/01 02:56:12;;;;;;;0.20;0.20;;;;;;;5.30;100.00;102673.81;4949238;28;20367;-79
2022/12/01 02:58:37;;;;;;;0.20;0.20;;;;;;;5.27;100.00;102657.91;4949858;28;20481;-79
2022/12/01 03:01:12;;;;;;;0.10;0.10;;;;;;;5.37;100.00;102678.06;4949387;28;20033;-78
2022/12/01 03:03:58;;;;;;;0.15;0.15;;;;;;;5.13;100.00;102644.09;4959501;28;20122;-79
2022/12/01 03:06:45;;;;;;;0.20;0.20;;;;;;;5.43;100.00;102678.81;4956292;28;20488;-78
2022/12/01 03:09:36;;;;;;;0.20;0.20;;;;;;;5.44;100.00;102680.53;4941899;28;20436;-78
2022/12/01 03:12:23;;;;;;;0.10;0.10;;;;;;;5.43;100.00;102681.50;4960968;28;20042;-78
2022/12/01 03:14:56;;;;;;;0.10;0.10;;;;;;;5.28;100.00;102657.00;4958015;28;20389;-79
2022/12/01 03:17:27;;;;;;;0.10;0.10;;;;;;;5.27;100.00;102657.91;4966375;28;20413;-78
2022/12/01 03:19:57;;;;;;;0.20;0.20;;;;;;;5.38;100.00;102674.50;4947722;28;20027;-78
2022/12/01 03:22:25;;;;;;;0.20;0.20;;;;;;;5.40;100.00;102682.44;4947586;28;20129;-78
2022/12/01 03:24:52;;;;;;;0.20;0.20;;;;;;;5.27;100.00;102660.56;4958352;28;20033;-78
2022/12/01 03:27:20;;;;;;;0.20;0.20;;;;;;;5.22;100.00;102647.38;4950262;28;20038;-78
2022/12/01 03:29:49;;;;;;;0.17;0.17;;;;;;;5.43;100.00;102682.34;4947931;28;20698;-78
2022/12/01 03:32:23;;;;;;;0.20;0.20;;;;;;;5.27;100.00;102668.56;4938336;28;20046;-78
2022/12/01 03:34:54;;;;;;;0.10;0.10;;;;;;;5.19;100.00;102655.44;4966482;28;20037;-78
2022/12/01 03:37:25;;;;;;;0.10;0.10;;;;;;;5.32;100.00;102682.63;4991518;23;20409;-78
2022/12/01 03:39:53;;;;;;;0.20;0.20;;;;;;;5.21;100.00;102661.59;4985938;28;20029;-78
2022/12/01 03:42:29;;;;;;;0.13;0.13;;;;;;;5.30;100.00;102675.63;4968964;28;20342;-79
2022/12/01 03:44:56;;;;;;;0.15;0.15;;;;;;;5.28;100.00;102677.44;4980065;28;20378;-79
2022/12/01 03:47:24;;;;;;;0.20;0.20;;;;;;;5.13;100.00;102639.63;4975589;28;20157;-79
2022/12/01 03:49:50;;;;;;;0.10;0.10;;;;;;;5.17;100.00;102632.41;4974156;28;20280;-78
2022/12/01 03:52:29;;;;;;;0.10;0.10;;;;;;;5.18;100.00;102643.03;4988278;28;20029;-78
2022/12/01 03:55:04;;;;;;;0.10;0.10;;;;;;;5.32;100.00;102673.75;4976710;28;20117;-79
2022/12/01 03:57:37;;;;;;;0.10;0.10;;;;;;;5.35;100.00;102674.56;4986488;28;20038;-78
2022/12/01 04:00:03;;;;;;;0.15;0.15;;;;;;;5.28;100.00;102666.78;4972417;28;20034;-79
2022/12/01 04:02:28;;;;;;;0.13;0.13;;;;;;;5.23;100.00;102673.09;4986326;28;20034;-78
2022/12/01 04:04:54;;;;;;;0.10;0.10;;;;;;;5.35;100.00;102687.00;4986244;28;20384;-78
2022/12/01 04:07:20;;;;;;;0.20;0.20;;;;;;;5.27;100.00;102667.69;4985540;28;20033;-78
2022/12/01 04:09:45;;;;;;;0.13;0.13;;;;;;;5.26;100.00;102666.81;4985468;28;20424;-78
2022/12/01 04:12:28;;;;;;;0.20;0.20;;;;;;;5.33;100.00;102695.03;4964762;28;20026;-79
2022/12/01 04:14:55;;;;;;;0.10;0.10;;;;;;;5.22;100.00;102658.03;4983514;28;20507;-78
2022/12/01 04:17:20;;;;;;;0.20;0.20;;;;;;;5.38;100.00;102686.91;4971128;28;20042;-79
2022/12/01 04:19:45;;;;;;;0.10;0.10;;;;;;;5.22;100.00;102667.78;4984831;28;20030;-78
2022/12/01 04:22:10;;;;;;;0.10;0.10;;;;;;;5.12;100.00;102656.50;4980571;28;20125;-78
2022/12/01 04:24:36;;;;;;;0.15;0.15;;;;;;;5.21;100.00;102666.94;4999265;28;20044;-78
2022/12/01 04:27:01;;;;;;;0.13;0.13;;;;;;;5.30;100.00;102664.97;4977003;28;20033;-78
2022/12/01 04:29:27;;;;;;;0.10;0.10;;;;;;;5.27;100.00;102660.56;5002692;28;20111;-79
2022/12/01 04:31:52;;;;;;;0.10;0.10;;;;;;;5.44;100.00;102681.44;4982294;28;20034;-78
2022/12/01 04:34:17;;;;;;;0.10;0.10;;;;;;;5.45;100.00;102674.31;4970401;28;20619;-78
2022/12/01 04:36:42;;;;;;;0.10;0.10;;;;;;;5.37;100.00;102669.19;4973274;28;20080;-79
2022/12/01 04:39:08;;;;;;;0.20;0.20;;;;;;;5.39;100.00;102662.91;4960362;28;20046;-78
2022/12/01 04:41:33;;;;;;;0.20;0.20;;;;;;;5.52;100.00;102687.44;4975099;28;20117;-78
2022/12/01 04:43:58;;;;;;;0.17;0.17;;;;;;;5.32;100.00;102658.66;4985838;28;20044;-79
2022/12/01 04:46:24;;;;;;;0.20;0.20;;;;;;;5.19;100.00;102642.13;4967671;28;20472;-79
2022/12/01 04:48:49;;;;;;;0.20;0.20;;;;;;;5.46;100.00;102684.03;4983838;28;20044;-78
2022/12/01 04:51:15;;;;;;;0.10;0.10;;;;;;;5.45;100.00;102687.63;4984384;28;20034;-79
2022/12/01 04:53:40;;;;;;;0.10;0.10;;;;;;;5.24;100.00;102645.56;4985086;28;20385;-79
2022/12/01 04:56:06;;;;;;;0.10;0.10;;;;;;;5.17;100.00;102645.72;4958171;28;20397;-79
2022/12/01 04:58:32;;;;;;;0.10;0.10;;;;;;;5.25;100.00;102679.25;5003826;28;20030;-78
2022/12/01 05:01:02;;;;;;;0.20;0.20;;;;;;;5.28;100.00;102678.31;4981143;28;20072;-78
2022/12/01 05:03:27;;;;;;;0.10;0.10;;;;;;;5.20;100.00;102675.84;4982690;28;20451;-78
2022/12/01 05:06:01;;;;;;;0.10;0.10;;;;;;;5.25;100.00;102687.25;4971631;28;20469;-79
2022/12/01 05:08:26;;;;;;;0.20;0.20;;;;;;;5.17;100.00;102670.59;4989899;28;20037;-79
2022/12/01 05:10:54;;;;;;;0.10;0.10;;;;;;;5.19;100.00;102662.53;4974359;28;20452;-78
2022/12/01 05:13:19;;;;;;;0.10;0.10;;;;;;;5.13;100.00;102684.03;4973615;28;20105;-78
2022/12/01 05:15:45;;;;;;;0.20;0.20;;;;;;;4.98;100.00;102664.00;4984592;28;20080;-78
2022/12/01 05:18:10;;;;;;;0.20;0.20;;;;;;;4.99;100.00;102655.09;4985210;28;20068;-78
2022/12/01 05:23:19;;;;;;;0.10;0.10;;;;;;;5.07;100.00;102664.63;4986745;28;20041;-78
2022/12/01 05:25:45;;;;;;;0.13;0.13;;;;;;;5.07;100.00;102669.06;4982425;28;20030;-79
2022/12/01 05:28:10;;;;;;;0.15;0.15;;;;;;;5.12;100.00;102667.16;4975469;28;20061;-77
2022/12/01 05:30:36;;;;;;;0.10;0.10;;;;;;;5.22;100.00;102692.66;4986795;28;20037;-78
2022/12/01 05:33:02;;;;;;;0.20;0.20;;;;;;;5.12;100.00;102664.50;4967793;28;20476;-78
2022/12/01 05:35:27;;;;;;;0.20;0.20;;;;;;;5.17;100.00;102664.38;4983155;28;20030;-78
2022/12/01 05:37:53;;;;;;;0.20;0.20;;;;;;;5.19;100.00;102668.75;4973862;28;20068;-77
2022/12/01 05:40:18;;;;;;;0.20;0.20;;;;;;;5.28;100.00;102688.09;4992705;28;20392;-77
2022/12/01 05:42:43;;;;;;;0.20;0.20;;;;;;;5.22;100.00;102687.34;4975817;28;20034;-78
2022/12/01 05:45:09;;;;;;;0.10;0.10;;;;;;;5.22;100.00;102674.00;4969331;28;20062;-78
2022/12/01 05:47:34;;;;;;;0.10;0.10;;;;;;;5.29;100.00;102684.53;4984104;28;20100;-78
2022/12/01 05:49:59;;;;;;;0.20;0.20;;;;;;;5.31;100.00;102690.66;4959934;28;20044;-78
2022/12/01 05:52:25;;;;;;;0.20;0.20;;;;;;;5.39;100.00;102704.66;4965617;28;20046;-78
2022/12/01 05:54:50;;;;;;;0.20;0.20;;;;;;;5.11;100.00;102692.03;4980755;28;20113;-77
2022/12/01 05:57:15;;;;;;;0.10;0.10;;;;;;;5.23;100.00;102686.41;4979960;28;20591;-78
2022/12/01 05:59:41;;;;;;;0.20;0.20;;;;;;;5.29;100.00;102711.16;4980357;28;20435;-77
2022/12/01 06:02:06;;;;;;;0.20;0.20;;;;;;;5.24;100.00;102698.81;4981912;28;20034;-78
2022/12/01 06:04:31;;;;;;;0.10;0.10;;;;;;;5.23;100.00;102685.53;4982135;28;20428;-78
2022/12/01 06:06:57;;;;;;;0.20;0.20;;;;;;;5.36;100.00;102707.38;4977510;28;20023;-76
2022/12/01 06:09:22;;;;;;;0.20;0.20;;;;;;;5.22;100.00;102678.44;4996810;28;20065;-78
2022/12/01 06:11:47;;;;;;;0.10;0.10;;;;;;;5.30;100.00;102692.47;4964668;28;20035;-78
2022/12/01 06:14:12;;;;;;;0.20;0.20;;;;;;;5.25;100.00;102705.00;4972285;28;20048;-77
2022/12/01 06:16:38;;;;;;;0.20;0.20;;;;;;;5.12;100.00;102688.47;4984483;28;20040;-78
2022/12/01 06:19:03;;;;;;;0.15;0.15;;;;;;;5.09;100.00;102691.19;4990949;28;20045;-78
2022/12/01 06:21:28;;;;;;;0.10;0.10;;;;;;;5.37;100.00;102706.47;4985197;28;20048;-77
2022/12/01 06:23:54;;;;;;;0.20;0.20;;;;;;;5.21;100.00;102658.94;5005385;28;20034;-77
2022/12/01 06:26:19;;;;;;;0.20;0.20;;;;;;;5.09;100.00;102676.13;4988761;28;20041;-77
2022/12/01 06:28:44;;;;;;;0.20;0.20;;;;;;;5.06;100.00;102668.19;4966061;28;20068;-77
2022/12/01 06:31:10;;;;;;;0.20;0.20;;;;;;;5.24;100.00;102701.47;4977242;28;20053;-77
2022/12/01 06:33:35;;;;;;;0.20;0.20;;;;;;;5.05;100.00;102669.13;4981691;28;20062;-78
2022/12/01 06:36:02;;;;;;;0.20;0.20;;;;;;;5.22;100.00;102703.31;4995296;28;20076;-78
2022/12/01 06:38:34;;;;;;;0.20;0.20;;;;;;;5.22;100.00;102705.97;4997851;28;20030;-77
2022/12/01 06:41:00;;;;;;;0.20;0.20;;;;;;;5.18;100.00;102714.06;4998523;28;20044;-77
2022/12/01 06:43:25;;;;;;;0.20;0.20;;;;;;;5.22;100.00;102719.28;4975139;28;20034;-78
2022/12/01 06:45:51;;;;;;;0.20;0.20;;;;;;;5.18;100.00;102706.06;4997879;28;20030;-77
2022/12/01 06:48:16;;;;;;;0.15;0.15;;;;;;;5.23;100.00;102713.06;4984276;28;20113;-77
2022/12/01 06:50:42;;;;;;;0.20;0.20;;;;;;;5.14;100.00;102699.09;4982408;28;20057;-77
2022/12/01 06:53:07;;;;;;;0.20;0.20;;;;;;;5.12;100.00;102704.44;4976740;28;20033;-77
2022/12/01 06:55:32;;;;;;;0.20;0.20;;;;;;;5.13;100.00;102714.19;4964066;28;20468;-77
2022/12/01 06:58:01;;;;;;;0.10;0.10;;;;;;;5.16;100.00;102730.09;4979143;28;20081;-77
2022/12/01 07:00:27;;;;;;;0.20;0.20;;;;;;;5.09;100.00;102718.72;4985528;28;20031;-77
2022/12/01 07:02:52;;;;;;;0.15;0.15;;;;;;;5.07;100.00;102722.31;4967523;28;20173;-77
2022/12/01 07:05:18;;;;;;;0.10;0.10;;;;;;;5.05;100.00;102727.69;4969134;28;20062;-77
2022/12/01 07:07:43;;;;;;;0.20;0.20;;;;;;;4.86;100.00;102707.75;4969749;28;20470;-78
2022/12/01 07:10:10;;;;;;;0.20;0.20;;;;;;;5.13;100.00;102742.63;4968798;28;20034;-78
2022/12/01 07:12:35;;;;;;;0.13;0.13;;;;;;;4.90;100.00;102712.09;4979110;28;20030;-78
2022/12/01 07:15:02;;;;;;;0.10;0.10;;;;;;;5.06;100.00;102750.75;4979570;28;20048;-78
2022/12/01 07:17:27;;;;;;;0.20;0.20;;;;;;;4.86;100.00;102710.41;4981218;28;20034;-77
2022/12/01 07:19:52;;;;;;;0.20;0.20;;;;;;;4.78;100.00;102722.09;4983392;28;20037;-77
2022/12/01 07:22:18;;;;;;;0.20;0.20;;;;;;;4.91;100.00;102741.31;4982771;28;20449;-77
2022/12/01 07:24:43;;;;;;;0.10;0.10;;;;;;;4.98;100.00;102752.69;4972418;28;20026;-77
2022/12/01 07:27:08;;;;;;;0.10;0.10;;;;;;;4.89;100.00;102743.16;4977148;28;20383;-77
2022/12/01 07:29:34;;;;;;;0.10;0.10;;;;;;;4.87;100.00;102738.78;4969438;28;20022;-77
2022/12/01 07:31:59;;;;;;;0.13;0.13;;;;;;;4.85;100.00;102744.13;4968262;28;20064;-77
2022/12/01 07:34:24;;;;;;;0.10;0.10;;;;;;;4.92;100.00;102752.84;4987864;28;20069;-78
2022/12/01 07:36:50;;;;;;;0.20;0.20;;;;;;;4.89;100.00;102745.81;4986417;28;20061;-77
2022/12/01 07:39:15;;;;;;;0.20;0.20;;;;;;;4.97;100.00;102756.28;4953887;28;20097;-77
2022/12/01 07:41:40;;;;;;;0.15;0.15;;;;;;;4.83;100.00;102715.81;4982617;28;20030;-76
2022/12/01 07:44:08;;;;;;;0.20;0.20;;;;;;;5.09;100.00;102760.44;4978599;28;20033;-76
2022/12/01 07:46:33;;;;;;;0.20;0.20;;;;;;;4.90;100.00;102722.75;4965287;28;20145;-76
2022/12/01 07:48:59;;;;;;;0.20;0.20;;;;;;;5.08;100.00;102743.59;4967390;28;20380;-77
2022/12/01 07:51:24;;;;;;;0.20;0.20;;;;;;;5.06;100.00;102734.75;4984977;28;20029;-76
2022/12/01 07:53:51;;;;;;;0.20;0.20;;;;;;;5.21;100.00;102751.25;4987321;28;20371;-76
2022/12/01 07:56:17;;;;;;;0.20;0.20;;;;;;;5.10;100.00;102748.88;4966209;28;20084;-76
2022/12/01 07:58:43;;;;;;;0.10;0.10;;;;;;;5.21;100.00;102761.91;4984260;28;20094;-77
2022/12/01 08:01:11;;;;;;;0.20;0.20;;;;;;;5.07;100.00;102746.28;4974987;28;20032;-77
2022/12/01 08:03:37;;;;;;;0.20;0.20;;;;;;;5.20;100.00;102760.16;4980000;28;20452;-76
2022/12/01 08:06:03;;;;;;;0.20;0.20;;;;;;;5.31;100.00;102770.56;4986489;28;20038;-76
2022/12/01 08:08:29;;;;;;;0.20;0.20;;;;;;;5.17;100.00;102739.81;4975703;28;20113;-78
2022/12/01 08:10:59;;;;;;;0.20;0.20;;;;;;;5.43;100.00;102762.28;4965115;28;20062;-77
2022/12/01 08:13:24;;;;;;;0.20;0.20;;;;;;;5.38;100.00;102743.75;4985605;28;20029;-78
2022/12/01 08:15:49;;;;;;;0.20;0.20;;;;;;;5.67;100.00;102775.88;4975585;28;20053;-77
2022/12/01 08:18:15;;;;;;;0.20;0.20;;;;;;;5.94;100.00;102778.72;4969277;28;20748;-77
2022/12/01 08:20:40;;;;;;;0.20;0.20;;;;;;;5.92;100.00;102744.13;5002912;28;20060;-78
2022/12/01 08:23:07;;;;;;;0.20;0.20;;;;;;;6.00;100.00;102755.47;4980514;28;20037;-78
2022/12/01 08:25:32;;;;;;;0.20;0.20;;;;;;;6.15;100.00;102769.31;4963843;28;20153;-78
2022/12/01 08:27:58;;;;;;;0.20;0.20;;;;;;;6.07;100.00;102763.28;4966566;28;20113;-78
2022/12/01 08:30:24;;;;;;;0.15;0.15;;;;;;;6.17;100.00;102767.47;4971451;28;20121;-78
2022/12/01 08:32:53;;;;;;;0.10;0.10;;;;;;;6.07;100.00;102742.84;4976029;28;20040;-79
2022/12/01 08:35:18;;;;;;;0.20;0.20;;;;;;;6.04;100.00;102739.38;4976968;28;20061;-78
2022/12/01 08:37:43;;;;;;;0.10;0.10;;;;;;;6.00;100.00;102774.13;4992505;28;20109;-79
2022/12/01 08:40:09;;;;;;;0.10;0.10;;;;;;;5.96;100.00;102776.91;4979324;28;20030;-78
2022/12/01 08:42:34;;;;;;;0.10;0.10;;;;;;;5.64;100.00;102763.53;4987883;28;20038;-77
2022/12/01 08:44:59;;;;;;;0.15;0.15;;;;;;;5.73;100.00;102770.41;4974271;28;20029;-78
2022/12/01 08:47:27;;;;;;;0.10;0.10;;;;;;;5.67;100.00;102775.88;4977129;28;20030;-78
2022/12/01 08:49:52;;;;;;;0.20;0.20;;;;;;;5.78;100.00;102781.81;4999313;28;20053;-73
2022/12/01 08:52:19;;;;;;;0.20;0.20;;;;;;;5.75;100.00;102789.00;4962210;28;20100;-74
2022/12/01 08:54:44;;;;;;;0.10;0.10;;;;;;;5.83;100.00;102776.34;4980631;28;20396;-73
2022/12/01 08:57:09;;;;;;;0.20;0.20;;;;;;;5.90;100.00;102761.94;4998884;28;20025;-78
2022/12/01 08:59:35;;;;;;;0.10;0.10;;;;;;;6.09;100.00;102750.78;4993359;28;20045;-79
2022/12/01 09:02:00;;;;;;;0.20;0.20;;;;;;;6.29;100.00;102745.75;4994822;28;20057;-78
2022/12/01 09:04:25;;;;;;;0.10;0.10;;;;;;;6.50;100.00;102786.06;4985325;28;20034;-79
2022/12/01 09:06:52;;;;;;;0.10;0.10;;;;;;;6.57;100.00;102782.31;4967036;28;20120;-78
2022/12/01 09:09:27;;;;;;;0.20;0.20;;;;;;;6.51;100.00;102785.16;4988777;28;20059;-79
2022/12/01 09:11:53;;;;;;;0.20;0.20;;;;;;;6.60;100.00;102782.22;4960340;28;20034;-78
2022/12/01 09:14:19;;;;;;;0.20;0.20;;;;;;;6.72;100.00;102788.13;4987047;28;20107;-78
2022/12/01 09:16:46;;;;;;;0.10;0.10;;;;;;;6.69;100.00;102786.41;5003208;28;20037;-78
2022/12/01 09:19:12;;;;;;;0.10;0.10;;;;;;;6.91;100.00;102785.72;4987581;28;20033;-78
2022/12/01 09:21:38;;;;;;;0.20;0.20;;;;;;;6.99;100.00;102769.50;4970375;28;20072;-80
2022/12/01 09:24:05;;;;;;;0.15;0.15;;;;;;;7.13;100.00;102761.91;4977311;28;20069;-79
2022/12/01 09:26:31;;;;;;;0.20;0.20;;;;;;;7.71;100.00;102789.38;4977755;28;20042;-79
2022/12/01 09:28:58;;;;;;;0.20;0.20;;;;;;;8.17;100.00;102790.44;4985576;28;20495;-78
2022/12/01 09:31:24;;;;;;;0.20;0.20;;;;;;;8.50;100.00;102787.47;4984377;28;20033;-79
2022/12/01 09:33:57;;;;;;;0.20;0.20;;;;;;;9.06;100.00;102787.13;4998156;28;20037;-79
2022/12/01 09:36:22;;;;;;;0.20;0.20;;;;;;;9.55;100.00;102794.94;4970323;28;20038;-80
2022/12/01 09:38:48;;;;;;;0.10;0.10;;;;;;;9.33;95.40;102757.44;4983369;28;20036;-79
2022/12/01 09:41:20;;;;;;;0.10;0.10;;;;;;;9.62;99.01;102801.78;4992177;28;20030;-79
2022/12/01 09:44:12;;;;;;;0.20;0.20;;;;;;;9.53;92.30;102797.69;4999687;28;20026;-79
2022/12/01 09:46:43;;;;;;;0.10;0.10;;;;;;;9.85;94.87;102773.97;4989297;28;20052;-79
2022/12/01 09:49:15;;;;;;;0.20;0.20;;;;;;;9.68;93.27;102769.34;4984063;28;20028;-79
2022/12/01 09:51:40;;;;;;;0.10;0.10;;;;;;;9.55;91.27;102770.78;4973991;28;20026;-79
2022/12/01 09:54:08;;;;;;;0.10;0.10;;;;;;;9.85;91.19;102765.94;4983185;28;20031;-79
2022/12/01 09:56:44;;;;;;;0.10;0.10;;;;;;;10.20;90.73;102776.88;4980076;28;20063;-79
2022/12/01 09:59:16;;;;;;;0.10;0.10;;;;;;;10.08;87.14;102779.25;4989473;28;20100;-79
2022/12/01 10:01:43;;;;;;;0.10;0.10;;;;;;;10.63;85.06;102782.13;4987516;28;20369;-79
2022/12/01 10:04:12;;;;;;;0.10;0.10;;;;;;;10.98;82.00;102776.03;4982985;28;20026;-79
2022/12/01 10:06:42;;;;;;;0.10;0.10;;;;;;;10.34;83.66;102772.72;4997847;28;20034;-79
2022/12/01 10:09:16;;;;;;;0.10;0.10;;;;;;;9.71;86.56;102771.00;4969272;28;20030;-79
2022/12/01 10:11:43;;;;;;;0.05;0.05;;;;;;;9.37;91.38;102767.97;4974893;28;20053;-80
2022/12/01 10:14:16;;;;;;;0.10;0.10;;;;;;;9.17;92.08;102771.47;5007169;28;20026;-79
2022/12/01 10:17:02;;;;;;;0.10;0.10;;;;;;;8.96;93.60;102786.63;4987872;28;20157;-79
2022/12/01 10:19:38;;;;;;;0.10;0.10;;;;;;;8.90;94.64;102776.16;5003559;28;20425;-79
2022/12/01 10:22:18;;;;;;;0.10;0.10;;;;;;;8.61;95.45;102770.97;4981795;28;20029;-79
2022/12/01 10:24:52;;;;;;;0.10;0.10;;;;;;;8.35;96.76;102766.59;4983272;28;20049;-79
2022/12/01 10:27:27;;;;;;;0.10;0.10;;;;;;;8.20;100.00;102768.03;4994064;28;20425;-78
2022/12/01 10:30:03;;;;;;;0.00;0.00;;;;;;;8.21;100.00;102765.28;5003806;28;20068;-79
2022/12/01 10:32:40;;;;;;;0.10;0.10;;;;;;;8.11;100.00;102764.75;4998688;28;20528;-79
2022/12/01 10:35:07;;;;;;;0.10;0.10;;;;;;;8.13;100.00;102766.50;4985051;28;20056;-79
2022/12/01 10:37:32;;;;;;;0.05;0.05;;;;;;;8.03;100.00;102745.47;4979673;28;20502;-79
2022/12/01 10:39:58;;;;;;;0.10;0.10;;;;;;;7.72;100.00;102714.47;4984433;28;20040;-78
2022/12/01 10:42:31;;;;;;;0.10;0.10;;;;;;;8.03;100.00;102753.50;4969289;28;20454;-79
2022/12/01 10:45:00;;;;;;;0.10;0.10;;;;;;;7.73;100.00;102736.72;4968999;28;20156;-79
2022/12/01 10:47:27;;;;;;;0.10;0.10;;;;;;;7.72;100.00;102759.03;4969016;28;20342;-79
2022/12/01 10:49:53;;;;;;;0.10;0.10;;;;;;;7.57;100.00;102723.03;4965654;28;20026;-79
2022/12/01 10:52:30;;;;;;;0.10;0.10;;;;;;;7.73;100.00;102745.63;4972299;28;20061;-79
2022/12/01 10:54:55;;;;;;;0.10;0.10;;;;;;;7.54;100.00;102704.44;5000829;28;20093;-79
2022/12/01 10:57:21;;;;;;;0.10;0.10;;;;;;;7.74;100.00;102730.44;4983853;28;20476;-79
2022/12/01 10:59:47;;;;;;;0.10;0.10;;;;;;;7.64;100.00;102746.84;4977255;28;20058;-78
2022/12/01 11:02:19;;;;;;;0.10;0.10;;;;;;;7.67;100.00;102745.84;4980526;28;20066;-79
2022/12/01 11:04:52;;;;;;;0.10;0.10;;;;;;;7.54;100.00;102744.53;4969263;28;20685;-80
2022/12/01 11:07:28;;;;;;;0.13;0.13;;;;;;;7.48;100.00;102745.59;5004927;28;20083;-78
2022/12/01 11:10:15;;;;;;;0.10;0.10;;;;;;;7.27;100.00;102750.75;4981202;28;20107;-78
2022/12/01 11:12:42;;;;;;;0.10;0.10;;;;;;;7.25;100.00;102720.53;4994934;28;20077;-78
2022/12/01 11:15:18;;;;;;;0.10;0.10;;;;;;;7.32;100.00;102730.09;4980179;28;20088;-78
2022/12/01 11:17:43;;;;;;;0.10;0.10;;;;;;;7.33;100.00;102710.47;4975015;28;20596;-79
2022/12/01 11:20:27;;;;;;;0.10;0.10;;;;;;;7.50;100.00;102739.28;4984323;28;20112;-79
2022/12/01 11:23:11;;;;;;;0.10;0.10;;;;;;;7.54;100.00;102726.69;4984291;28;20408;-79
2022/12/01 11:25:36;;;;;;;0.10;0.10;;;;;;;7.60;100.00;102746.97;4977760;28;20034;-79
2022/12/01 11:28:03;;;;;;;0.10;0.10;;;;;;;7.53;100.00;102743.66;4981849;28;20040;-78
2022/12/01 11:30:30;;;;;;;0.10;0.10;;;;;;;7.42;100.00;102714.63;4987466;28;20040;-78
2022/12/01 11:32:58;;;;;;;0.20;0.20;;;;;;;7.28;100.00;102701.72;4976131;28;20018;-79
2022/12/01 11:35:25;;;;;;;0.10;0.10;;;;;;;7.53;100.00;102708.91;4985985;28;20112;-78
2022/12/01 11:37:53;;;;;;;0.10;0.10;;;;;;;7.66;100.00;102728.06;4979429;28;20435;-78